Aviation Digital Data Service (ADDS)

Output produced by METARs form (0126 UTC 01 August 2015)
found at http://www.aviationweather.gov/adds/metars/
 
KGED 010054Z AUTO 22003KT 10SM CLR 24/17 A2988 RMK AO2 SLP116 T02440172